Hatsu Excel — VSXV3 — position and weather

sailwx.info

Track history (hours):
 
Tides and Currents Weather Stations Pressure Air Temp Water Temp Dewpoint Dewpoint Depression Visibility Wind Speed Wind Dir Waves Ship Positions

Hatsu Excel

Last reported at 2018-Jun-18 16:58 UTC. Time now 2018-Jun-18 17:05 UTC.
Position N 33°45' W 118°16'.

Type: Ship (hazmat cat D). MMSI: 235479000.

Date/timePositionNaut miles runAvg speedWind from/ knotsBaromVisibWave heightAir tempDewpointWater temp
2018-Jun-18 16:58N 33°45' W 118°16'0 0.0
2018-Jun-18 16:28N 33°45' W 118°16'0 0.0
2018-Jun-18 15:58N 33°45' W 118°16'0 0.0
2018-Jun-18 15:28N 33°45' W 118°16'0 0.0
2018-Jun-18 14:58N 33°45' W 118°16'0 0.0
2018-Jun-18 14:28N 33°45' W 118°16'0 0.0
2018-Jun-18 13:58N 33°45' W 118°16'0 0.0
2018-Jun-18 13:28N 33°45' W 118°16'0 0.0
2018-Jun-18 12:58N 33°45' W 118°16'0 0.0
2018-Jun-18 12:28N 33°45' W 118°16'0 0.0
2018-Jun-18 11:58N 33°45' W 118°16'0 0.0
2018-Jun-18 11:25N 33°45' W 118°16'0 0.0
2018-Jun-18 10:58N 33°45' W 118°16'0 0.0
2018-Jun-18 10:28N 33°45' W 118°16'0 0.0
2018-Jun-18 09:58N 33°45' W 118°16'0 0.0
2018-Jun-18 09:28N 33°45' W 118°16'0 0.0
2018-Jun-18 08:58N 33°45' W 118°16'0 0.0
2018-Jun-18 08:28N 33°45' W 118°16'0 0.0
2018-Jun-18 07:58N 33°45' W 118°16'0 0.0
2018-Jun-18 07:28N 33°45' W 118°16'0 0.0
2018-Jun-18 06:58N 33°45' W 118°16'0 0.0
2018-Jun-18 06:28N 33°45' W 118°16'0 0.0
2018-Jun-18 05:58N 33°45' W 118°16'0 0.0
2018-Jun-18 05:22N 33°45' W 118°16'0 0.0
2018-Jun-18 04:58N 33°45' W 118°16'0 0.0
2018-Jun-18 04:28N 33°45' W 118°16'0 0.0
2018-Jun-18 03:58N 33°45' W 118°16'0 0.0
2018-Jun-18 03:28N 33°45' W 118°16'0 0.1
2018-Jun-18 02:58N 33°45' W 118°16'0 0.0
2018-Jun-18 02:28N 33°45' W 118°16'0 0.0
2018-Jun-18 01:58N 33°45' W 118°16'0 0.0
2018-Jun-18 01:28N 33°45' W 118°16'0 0.0
2018-Jun-18 00:58N 33°45' W 118°16'0 0.0
2018-Jun-18 00:28N 33°45' W 118°16'0 0.0
2018-Jun-17 23:58N 33°45' W 118°16'0 0.0
2018-Jun-17 23:28N 33°45' W 118°16'0 0.0
2018-Jun-17 22:58N 33°45' W 118°16'0 0.1
2018-Jun-17 22:28N 33°45' W 118°16'0 0.1
2018-Jun-17 21:58N 33°45' W 118°16'0 0.0
2018-Jun-17 21:28N 33°45' W 118°16'0 0.0
2018-Jun-17 20:55N 33°45' W 118°16'0 0.0
2018-Jun-17 20:28N 33°45' W 118°16'0 0.0
2018-Jun-17 19:58N 33°45' W 118°16'0 0.0
2018-Jun-17 19:28N 33°45' W 118°16'0 0.0
2018-Jun-17 18:58N 33°45' W 118°16'0 0.1
2018-Jun-17 18:28N 33°45' W 118°16'0 0.0
2018-Jun-17 17:58N 33°45' W 118°16'0 0.0
2018-Jun-17 17:28N 33°45' W 118°16'0 0.0
2018-Jun-17 16:58N 33°45' W 118°16'0 0.0
2018-Jun-17 16:28N 33°45' W 118°16'0 0.0
2018-Jun-17 15:55N 33°45' W 118°16'0 0.0
2018-Jun-17 15:28N 33°45' W 118°16'0 0.0
2018-Jun-17 14:58N 33°45' W 118°16'0 0.0
2018-Jun-17 14:31N 33°45' W 118°16'0 0.5
2018-Jun-17 14:01N 33°45' W 118°16'2 3.0
2018-Jun-17 13:30N 33°44' W 118°16'4 7.6
2018-Jun-17 13:01N 33°40' W 118°15'4 8.6
2018-Jun-17 12:30N 33°36' W 118°17'2 3.9
2018-Jun-17 12:00N 33°36' W 118°19'3 5.8
2018-Jun-17 11:30N 33°36' W 118°23'1 1.9
2018-Jun-17 10:59N 33°35' W 118°24'2 4.9
2018-Jun-17 10:31N 33°35' W 118°27'3 6.6
2018-Jun-17 10:00N 33°35' W 118°31'4 7.4
2018-Jun-17 09:30N 33°36' W 118°35'3 6.7
2018-Jun-17 09:00N 33°36' W 118°39'4 7.6
2018-Jun-17 08:31N 33°37' W 118°43'611.2
2018-Jun-17 08:00N 33°37' W 118°50'511.0
2018-Jun-17 07:31N 33°38' W 118°57'510.9
2018-Jun-17 07:01N 33°38' W 119°03'611.2
2018-Jun-17 06:30N 33°38' W 119°10'611.5
2018-Jun-17 06:01N 33°38' W 119°17'611.3
2018-Jun-17 05:30N 33°38' W 119°24'611.6
2018-Jun-17 04:58N 33°38' W 119°31'612.4
2018-Jun-17 04:31N 33°38' W 119°38'612.8
2018-Jun-17 04:00N 33°38' W 119°46'612.6
2018-Jun-17 03:30N 33°38' W 119°53'714.5
2018-Jun-17 03:00N 33°38' W 120°02'916.2
2018-Jun-17 02:28N 33°38' W 120°12'816.5
2018-Jun-17 02:00N 33°38' W 120°22'816.5
2018-Jun-17 01:30N 33°38' W 120°31'816.5
2018-Jun-17 01:00N 33°38' W 120°42'816.5
2018-Jun-17 00:31N 33°38' W 120°51'816.6
2018-Jun-17 00:00N 33°37' W 121°01'816.3
2018-Jun-16 23:29N 33°38' W 121°11'816.5
2018-Jun-16 23:00N 33°38' W 121°21'816.2
2018-Jun-16 22:31N 33°38' W 121°31'3616.7
2018-Jun-16 20:22N 33°37' W 122°14'616.4
2018-Jun-16 19:59N 33°37' W 122°21'1516.1
2018-Jun-16 19:04N 33°37' W 122°39'416.1
2018-Jun-16 18:51N 33°37' W 122°43'616.5
2018-Jun-16 18:31N 33°37' W 122°50'916.1
2018-Jun-16 17:59N 33°37' W 123°00'816.3
2018-Jun-16 17:29N 33°37' W 123°10'816.3
2018-Jun-16 17:00N 33°37' W 123°19'816.3
2018-Jun-16 16:30N 33°37' W 123°29'3316.4
2018-Jun-16 14:31N 33°37' W 124°08'017.2
2018-Jun-16 14:30N 33°37' W 124°09'816.5
2018-Jun-16 14:00N 33°37' W 124°18'916.5
2018-Jun-16 13:26N 33°37' W 124°30'1317.1
2018-Jun-16 12:41N 33°44' W 124°43'2916.9
2018-Jun-16 10:57N 33°59' W 125°13'7017.1
2018-Jun-16 06:52N 34°36' W 126°25'7218.5
2018-Jun-16 02:58N 35°13' W 127°40'1119.1
2018-Jun-16 02:23N 35°19' W 127°52'  
Track history (hours):
 
Tides and Currents Weather Stations Pressure Air Temp Water Temp Dewpoint Dewpoint Depression Visibility Wind Speed Wind Dir Waves Ship Positions

Hatsu Excel

Last reported at 2018-Jun-18 16:58 UTC. Time now 2018-Jun-18 17:05 UTC.
Position N 33°45' W 118°16'.

Type: Ship (hazmat cat D). MMSI: 235479000.

Date/timePositionNaut miles runAvg speedWind from/ knotsBaromVisibWave heightAir tempDewpointWater temp
2018-Jun-18 16:58N 33°45' W 118°16'0 0.0
2018-Jun-18 16:28N 33°45' W 118°16'0 0.0
2018-Jun-18 15:58N 33°45' W 118°16'0 0.0
2018-Jun-18 15:28N 33°45' W 118°16'0 0.0
2018-Jun-18 14:58N 33°45' W 118°16'0 0.0
2018-Jun-18 14:28N 33°45' W 118°16'0 0.0
2018-Jun-18 13:58N 33°45' W 118°16'0 0.0
2018-Jun-18 13:28N 33°45' W 118°16'0 0.0
2018-Jun-18 12:58N 33°45' W 118°16'0 0.0
2018-Jun-18 12:28N 33°45' W 118°16'0 0.0
2018-Jun-18 11:58N 33°45' W 118°16'0 0.0
2018-Jun-18 11:25N 33°45' W 118°16'0 0.0
2018-Jun-18 10:58N 33°45' W 118°16'0 0.0
2018-Jun-18 10:28N 33°45' W 118°16'0 0.0
2018-Jun-18 09:58N 33°45' W 118°16'0 0.0
2018-Jun-18 09:28N 33°45' W 118°16'0 0.0
2018-Jun-18 08:58N 33°45' W 118°16'0 0.0
2018-Jun-18 08:28N 33°45' W 118°16'0 0.0
2018-Jun-18 07:58N 33°45' W 118°16'0 0.0
2018-Jun-18 07:28N 33°45' W 118°16'0 0.0
2018-Jun-18 06:58N 33°45' W 118°16'0 0.0
2018-Jun-18 06:28N 33°45' W 118°16'0 0.0
2018-Jun-18 05:58N 33°45' W 118°16'0 0.0
2018-Jun-18 05:22N 33°45' W 118°16'0 0.0
2018-Jun-18 04:58N 33°45' W 118°16'0 0.0
2018-Jun-18 04:28N 33°45' W 118°16'0 0.0
2018-Jun-18 03:58N 33°45' W 118°16'0 0.0
2018-Jun-18 03:28N 33°45' W 118°16'0 0.1
2018-Jun-18 02:58N 33°45' W 118°16'0 0.0
2018-Jun-18 02:28N 33°45' W 118°16'0 0.0
2018-Jun-18 01:58N 33°45' W 118°16'0 0.0
2018-Jun-18 01:28N 33°45' W 118°16'0 0.0
2018-Jun-18 00:58N 33°45' W 118°16'0 0.0
2018-Jun-18 00:28N 33°45' W 118°16'0 0.0
2018-Jun-17 23:58N 33°45' W 118°16'0 0.0
2018-Jun-17 23:28N 33°45' W 118°16'0 0.0
2018-Jun-17 22:58N 33°45' W 118°16'0 0.1
2018-Jun-17 22:28N 33°45' W 118°16'0 0.1
2018-Jun-17 21:58N 33°45' W 118°16'0 0.0
2018-Jun-17 21:28N 33°45' W 118°16'0 0.0
2018-Jun-17 20:55N 33°45' W 118°16'0 0.0
2018-Jun-17 20:28N 33°45' W 118°16'0 0.0
2018-Jun-17 19:58N 33°45' W 118°16'0 0.0
2018-Jun-17 19:28N 33°45' W 118°16'0 0.0
2018-Jun-17 18:58N 33°45' W 118°16'0 0.1
2018-Jun-17 18:28N 33°45' W 118°16'0 0.0
2018-Jun-17 17:58N 33°45' W 118°16'0 0.0
2018-Jun-17 17:28N 33°45' W 118°16'0 0.0
2018-Jun-17 16:58N 33°45' W 118°16'0 0.0
2018-Jun-17 16:28N 33°45' W 118°16'0 0.0
2018-Jun-17 15:55N 33°45' W 118°16'0 0.0
2018-Jun-17 15:28N 33°45' W 118°16'0 0.0
2018-Jun-17 14:58N 33°45' W 118°16'0 0.0
2018-Jun-17 14:31N 33°45' W 118°16'0 0.5
2018-Jun-17 14:01N 33°45' W 118°16'2 3.0
2018-Jun-17 13:30N 33°44' W 118°16'4 7.6
2018-Jun-17 13:01N 33°40' W 118°15'4 8.6
2018-Jun-17 12:30N 33°36' W 118°17'2 3.9
2018-Jun-17 12:00N 33°36' W 118°19'3 5.8
2018-Jun-17 11:30N 33°36' W 118°23'1 1.9
2018-Jun-17 10:59N 33°35' W 118°24'2 4.9
2018-Jun-17 10:31N 33°35' W 118°27'3 6.6
2018-Jun-17 10:00N 33°35' W 118°31'4 7.4
2018-Jun-17 09:30N 33°36' W 118°35'3 6.7
2018-Jun-17 09:00N 33°36' W 118°39'4 7.6
2018-Jun-17 08:31N 33°37' W 118°43'611.2
2018-Jun-17 08:00N 33°37' W 118°50'511.0
2018-Jun-17 07:31N 33°38' W 118°57'510.9
2018-Jun-17 07:01N 33°38' W 119°03'611.2
2018-Jun-17 06:30N 33°38' W 119°10'611.5
2018-Jun-17 06:01N 33°38' W 119°17'611.3
2018-Jun-17 05:30N 33°38' W 119°24'611.6
2018-Jun-17 04:58N 33°38' W 119°31'612.4
2018-Jun-17 04:31N 33°38' W 119°38'612.8
2018-Jun-17 04:00N 33°38' W 119°46'612.6
2018-Jun-17 03:30N 33°38' W 119°53'714.5
2018-Jun-17 03:00N 33°38' W 120°02'916.2
2018-Jun-17 02:28N 33°38' W 120°12'816.5
2018-Jun-17 02:00N 33°38' W 120°22'816.5
2018-Jun-17 01:30N 33°38' W 120°31'816.5
2018-Jun-17 01:00N 33°38' W 120°42'816.5
2018-Jun-17 00:31N 33°38' W 120°51'816.6
2018-Jun-17 00:00N 33°37' W 121°01'816.3
2018-Jun-16 23:29N 33°38' W 121°11'816.5
2018-Jun-16 23:00N 33°38' W 121°21'816.2
2018-Jun-16 22:31N 33°38' W 121°31'3616.7
2018-Jun-16 20:22N 33°37' W 122°14'616.4
2018-Jun-16 19:59N 33°37' W 122°21'1516.1
2018-Jun-16 19:04N 33°37' W 122°39'416.1
2018-Jun-16 18:51N 33°37' W 122°43'616.5
2018-Jun-16 18:31N 33°37' W 122°50'916.1
2018-Jun-16 17:59N 33°37' W 123°00'816.3
2018-Jun-16 17:29N 33°37' W 123°10'816.3
2018-Jun-16 17:00N 33°37' W 123°19'816.3
2018-Jun-16 16:30N 33°37' W 123°29'3316.4
2018-Jun-16 14:31N 33°37' W 124°08'017.2
2018-Jun-16 14:30N 33°37' W 124°09'816.5
2018-Jun-16 14:00N 33°37' W 124°18'916.5
2018-Jun-16 13:26N 33°37' W 124°30'1317.1
2018-Jun-16 12:41N 33°44' W 124°43'2916.9
2018-Jun-16 10:57N 33°59' W 125°13'7017.1
2018-Jun-16 06:52N 34°36' W 126°25'7218.5
2018-Jun-16 02:58N 35°13' W 127°40'1119.1
2018-Jun-16 02:23N 35°19' W 127°52'  

Dump ship's entire track history